Time;durP1;ratioP1;P1;durP2;ratioP2;P2;SDS_P1;SDS_P2;PMS_P1;PMS_P2;Temp;Humidity;BMP_temperature;BMP_pressure;BME280_temperature;BME280_humidity;BME280_pressure;Samples;Min_cycle;Max_cycle;Signal;HPM_P1;HPM_P2
2021/05/03 00:02:17;;;;;;;16.65;14.82;;;;;;;6.27;100.00;96724.16;4992384;28;20097;-66
2021/05/03 00:04:45;;;;;;;17.40;13.77;;;;;;;6.07;100.00;96727.38;4994643;28;20073;-65
2021/05/03 00:07:13;;;;;;;17.55;14.52;;;;;;;6.19;100.00;96726.50;4988994;28;20078;-67
2021/05/03 00:09:42;;;;;;;18.48;14.98;;;;;;;6.19;100.00;96723.88;4993736;28;20464;-65
2021/05/03 00:12:10;;;;;;;18.55;14.63;;;;;;;6.05;100.00;96729.25;4987235;28;20065;-65
2021/05/03 00:14:37;;;;;;;17.05;13.20;;;;;;;5.99;100.00;96737.56;4990219;28;20065;-66
2021/05/03 00:17:06;;;;;;;17.17;14.02;;;;;;;6.01;100.00;96746.97;4987715;28;20074;-67
2021/05/03 00:19:36;;;;;;;16.40;13.57;;;;;;;6.07;100.00;96743.94;4987343;28;20058;-66
2021/05/03 00:22:04;;;;;;;16.42;13.60;;;;;;;6.09;100.00;96742.06;4990612;28;20163;-65
2021/05/03 00:24:31;;;;;;;17.05;14.82;;;;;;;6.16;100.00;96742.44;4990434;28;20437;-66
2021/05/03 00:26:59;;;;;;;16.80;14.68;;;;;;;6.33;100.00;96734.22;4986209;28;20080;-65
2021/05/03 00:29:27;;;;;;;16.25;13.75;;;;;;;6.24;100.00;96747.13;4990328;28;20453;-65
2021/05/03 00:31:55;;;;;;;16.38;13.65;;;;;;;6.16;100.00;96747.69;4986754;28;20109;-65
2021/05/03 00:34:23;;;;;;;15.35;12.43;;;;;;;6.12;100.00;96746.22;4989294;28;20572;-66
2021/05/03 00:36:51;;;;;;;16.40;13.52;;;;;;;6.16;100.00;96750.31;4990450;28;20078;-67
2021/05/03 00:39:18;;;;;;;16.48;12.55;;;;;;;6.30;100.00;96737.03;4972658;28;20066;-67
2021/05/03 00:41:46;;;;;;;15.13;12.85;;;;;;;6.39;100.00;96738.97;4983837;28;20626;-66
2021/05/03 00:44:14;;;;;;;17.17;13.85;;;;;;;6.26;100.00;96740.81;4987580;28;20062;-66
2021/05/03 00:46:41;;;;;;;14.20;11.82;;;;;;;6.23;100.00;96745.44;4989500;28;20077;-64
2021/05/03 00:49:09;;;;;;;15.68;12.73;;;;;;;6.29;100.00;96734.53;4986553;28;20090;-66
2021/05/03 00:51:37;;;;;;;13.57;11.63;;;;;;;6.14;100.00;96741.72;4996279;28;20078;-65
2021/05/03 00:54:06;;;;;;;15.38;12.30;;;;;;;6.14;100.00;96739.09;4986123;28;20077;-66
2021/05/03 00:56:33;;;;;;;16.25;12.00;;;;;;;6.14;100.00;96741.72;4989686;28;20077;-66
2021/05/03 00:59:01;;;;;;;14.63;11.77;;;;;;;6.12;100.00;96739.19;4987418;28;20081;-65
2021/05/03 01:01:29;;;;;;;14.77;11.75;;;;;;;6.10;100.00;96742.88;4988872;28;20468;-65
2021/05/03 01:03:56;;;;;;;14.18;11.23;;;;;;;6.12;100.00;96743.59;4990633;28;20574;-66
2021/05/03 01:06:24;;;;;;;13.05;10.63;;;;;;;6.12;100.00;96746.22;4989502;28;20070;-66
2021/05/03 01:08:52;;;;;;;12.40;10.55;;;;;;;6.11;100.00;96757.63;4985820;28;20054;-64
2021/05/03 01:11:20;;;;;;;15.38;12.68;;;;;;;6.19;100.00;96750.06;4988438;28;20066;-66
2021/05/03 01:13:48;;;;;;;15.27;12.38;;;;;;;6.05;100.00;96750.22;4971575;28;20046;-64
2021/05/03 01:16:16;;;;;;;15.57;12.13;;;;;;;6.06;100.00;96746.66;4985112;28;20077;-66
2021/05/03 01:18:44;;;;;;;15.52;12.40;;;;;;;6.18;100.00;96746.59;4989935;28;20436;-65
2021/05/03 01:21:22;;;;;;;15.27;12.13;;;;;;;6.28;100.00;96752.03;4989010;28;20066;-63
2021/05/03 01:23:50;;;;;;;14.73;12.20;;;;;;;6.28;100.00;96741.53;4986517;28;20481;-65
2021/05/03 01:26:18;;;;;;;13.95;11.57;;;;;;;6.26;100.00;96751.28;4989153;28;20077;-66
2021/05/03 01:28:46;;;;;;;13.95;11.85;;;;;;;6.34;100.00;96746.34;4986789;28;20084;-66
2021/05/03 01:31:14;;;;;;;13.63;11.27;;;;;;;6.24;100.00;96755.81;4986362;28;20077;-66
2021/05/03 01:33:42;;;;;;;14.43;12.00;;;;;;;6.28;100.00;96757.25;4991030;28;20520;-63
2021/05/03 01:36:10;;;;;;;14.65;11.85;;;;;;;6.25;100.00;96749.63;4987423;28;20052;-67
2021/05/03 01:38:38;;;;;;;15.43;11.90;;;;;;;6.36;100.00;96756.69;4988573;28;20065;-66
2021/05/03 01:41:06;;;;;;;13.30;11.23;;;;;;;6.26;100.00;96761.75;4980773;28;20552;-66
2021/05/03 01:43:34;;;;;;;13.77;11.30;;;;;;;6.39;100.00;96753.84;4989435;28;20058;-67
2021/05/03 01:46:02;;;;;;;13.73;11.60;;;;;;;6.24;100.00;96760.22;4988158;28;20116;-66
2021/05/03 01:48:31;;;;;;;14.38;12.10;;;;;;;6.30;100.00;96765.84;4989102;28;20311;-65
2021/05/03 01:51:00;;;;;;;13.77;11.50;;;;;;;6.16;100.00;96768.63;4966788;28;20066;-65
2021/05/03 01:53:28;;;;;;;14.68;12.13;;;;;;;6.17;100.00;96776.38;4988142;28;20096;-64
2021/05/03 01:55:57;;;;;;;14.45;12.02;;;;;;;6.26;100.00;96777.47;4986194;28;20077;-66
2021/05/03 01:58:27;;;;;;;15.55;11.80;;;;;;;6.26;100.00;96768.78;4988322;28;20073;-65
2021/05/03 02:00:57;;;;;;;14.85;11.82;;;;;;;6.15;100.00;96774.78;4988782;28;20077;-66
2021/05/03 02:03:25;;;;;;;16.13;12.82;;;;;;;6.36;100.00;96775.03;4977543;28;20077;-65
2021/05/03 02:05:53;;;;;;;14.50;11.43;;;;;;;6.21;100.00;96771.75;4986292;28;20073;-65
2021/05/03 02:08:22;;;;;;;14.05;11.55;;;;;;;6.25;100.00;96777.59;4988277;28;20453;-63
2021/05/03 02:10:51;;;;;;;14.57;11.38;;;;;;;6.12;100.00;96777.63;4978411;28;20085;-67
2021/05/03 02:13:20;;;;;;;14.95;12.10;;;;;;;6.02;100.00;96774.84;4987224;28;20089;-65
2021/05/03 02:15:48;;;;;;;15.30;12.45;;;;;;;6.06;100.00;96778.09;4987878;28;20054;-66
2021/05/03 02:18:17;;;;;;;15.15;11.55;;;;;;;6.08;100.00;96776.19;4986703;28;20069;-65
2021/05/03 02:20:45;;;;;;;14.70;12.40;;;;;;;6.06;100.00;96765.00;4968575;28;20074;-64
2021/05/03 02:23:13;;;;;;;15.75;12.85;;;;;;;6.02;100.00;96767.00;4987390;28;20042;-65
2021/05/03 02:25:41;;;;;;;15.55;13.10;;;;;;;6.03;100.00;96765.22;4984964;28;20046;-66
2021/05/03 02:28:10;;;;;;;16.80;13.23;;;;;;;6.02;100.00;96763.50;4984779;28;20101;-65
2021/05/03 02:30:40;;;;;;;16.08;12.85;;;;;;;5.95;100.00;96765.72;4969195;28;20042;-67
2021/05/03 02:33:08;;;;;;;16.38;12.52;;;;;;;5.90;100.00;96760.78;4985360;28;20078;-67
2021/05/03 02:35:36;;;;;;;18.33;13.93;;;;;;;5.81;100.00;96763.22;4985839;28;20058;-64
2021/05/03 02:38:07;;;;;;;17.38;13.60;;;;;;;5.94;100.00;96762.28;4982231;28;20086;-63
2021/05/03 02:40:34;;;;;;;;;;;;;;;5.92;100.00;96763.31;4984332;28;20544;-66
2021/05/03 02:43:03;;;;;;;17.65;12.75;;;;;;;5.74;100.00;96765.44;4986649;28;19957;-65
2021/05/03 02:45:32;;;;;;;16.27;13.25;;;;;;;5.86;100.00;96764.59;4986375;28;21374;-65
2021/05/03 02:48:00;;;;;;;18.77;14.55;;;;;;;5.74;100.00;96762.81;4985406;28;20074;-65
2021/05/03 02:50:29;;;;;;;17.50;13.55;;;;;;;5.85;100.00;96762.91;4985525;28;20065;-66
2021/05/03 02:52:56;;;;;;;17.85;13.75;;;;;;;5.95;100.00;96765.72;4978803;28;20066;-65
2021/05/03 02:55:24;;;;;;;18.85;14.07;;;;;;;5.91;100.00;96759.84;4988243;28;20149;-66
2021/05/03 02:57:54;;;;;;;19.33;13.73;;;;;;;6.02;100.00;96768.75;4987144;28;20086;-66
2021/05/03 03:00:23;;;;;;;17.35;13.40;;;;;;;5.92;100.00;96761.56;4987580;28;20084;-66
2021/05/03 03:02:51;;;;;;;16.70;13.30;;;;;;;5.93;100.00;96763.22;4986230;28;20668;-64
2021/05/03 03:05:19;;;;;;;17.58;13.57;;;;;;;6.54;100.00;96762.41;4987483;28;20039;-65
2021/05/03 03:07:51;;;;;;;18.63;14.30;;;;;;;6.09;100.00;96770.84;4981649;28;20078;-65
2021/05/03 03:10:20;;;;;;;18.80;13.88;;;;;;;6.08;100.00;96771.78;4987626;28;20080;-65
2021/05/03 03:12:48;;;;;;;19.67;15.00;;;;;;;6.15;100.00;96778.25;4985733;28;20086;-65
2021/05/03 03:15:18;;;;;;;18.55;14.60;;;;;;;6.16;100.00;96779.09;4987789;28;20532;-64
2021/05/03 03:17:47;;;;;;;17.67;14.38;;;;;;;6.36;100.00;96781.09;4980098;28;20077;-65
2021/05/03 03:20:16;;;;;;;19.50;14.63;;;;;;;6.26;100.00;96787.13;4981563;28;20093;-65
2021/05/03 03:22:44;;;;;;;19.70;15.70;;;;;;;6.43;100.00;96786.72;4987218;28;20555;-70
2021/05/03 03:25:13;;;;;;;18.90;14.18;;;;;;;6.49;100.00;96778.44;4973015;28;20078;-63
2021/05/03 03:27:41;;;;;;;18.13;13.77;;;;;;;6.27;100.00;96788.81;4974457;28;20081;-64
2021/05/03 03:30:10;;;;;;;19.48;14.90;;;;;;;6.10;100.00;96790.84;4983472;28;20070;-63
2021/05/03 03:32:41;;;;;;;18.13;14.73;;;;;;;5.98;100.00;96790.88;4983323;28;20035;-62
2021/05/03 03:35:10;;;;;;;16.95;12.80;;;;;;;6.01;100.00;96796.72;4984264;28;20066;-66
2021/05/03 03:37:37;;;;;;;22.27;15.05;;;;;;;6.12;100.00;96803.81;4988542;28;20089;-65
2021/05/03 03:40:07;;;;;;;20.67;15.23;;;;;;;6.04;100.00;96804.34;4983972;28;20089;-63
2021/05/03 03:42:35;;;;;;;17.50;14.70;;;;;;;6.10;100.00;96798.69;4988720;28;20528;-65
2021/05/03 03:45:04;;;;;;;20.73;15.45;;;;;;;6.01;100.00;96801.13;4986816;28;20166;-64
2021/05/03 03:47:32;;;;;;;19.42;15.00;;;;;;;6.05;100.00;96800.78;4986988;28;20077;-67
2021/05/03 03:50:00;;;;;;;21.35;15.02;;;;;;;6.09;100.00;96804.88;4982111;28;20521;-66
2021/05/03 03:52:29;;;;;;;19.85;14.63;;;;;;;5.93;100.00;96805.13;4983447;28;20122;-67
2021/05/03 03:54:57;;;;;;;18.88;15.05;;;;;;;6.14;100.00;96815.84;4987596;28;20090;-65
2021/05/03 03:57:25;;;;;;;21.90;15.15;;;;;;;6.11;100.00;96817.84;4986429;28;20073;-66
2021/05/03 03:59:55;;;;;;;20.55;15.73;;;;;;;6.00;100.00;96816.00;4982884;28;20077;-67
2021/05/03 04:02:23;;;;;;;19.80;15.20;;;;;;;5.86;100.00;96823.94;4969735;28;20456;-66
2021/05/03 04:05:03;;;;;;;19.55;14.38;;;;;;;5.81;100.00;96818.19;4983606;28;20073;-66
2021/05/03 04:07:35;;;;;;;20.90;15.10;;;;;;;5.97;100.00;96821.44;4987409;28;20046;-66
2021/05/03 04:10:12;;;;;;;22.10;15.43;;;;;;;5.83;100.00;96822.38;4986197;28;20174;-66
2021/05/03 04:12:54;;;;;;;21.13;15.50;;;;;;;5.79;100.00;96823.53;4977766;28;20042;-65
2021/05/03 04:21:16;;;;;;;17.83;13.88;;;;;;;5.84;100.00;96829.25;4982012;28;20089;-66
2021/05/03 04:23:54;;;;;;;21.05;15.93;;;;;;;6.00;100.00;96830.88;4988105;28;20540;-62
2021/05/03 04:26:22;;;;;;;20.10;15.75;;;;;;;6.68;100.00;96819.03;4988374;28;20081;-61
2021/05/03 04:28:52;;;;;;;18.73;14.77;;;;;;;6.82;100.00;96819.69;4987895;28;20058;-65
2021/05/03 04:31:21;;;;;;;18.23;15.05;;;;;;;7.44;100.00;96823.00;4979791;28;20085;-65
2021/05/03 04:33:50;;;;;;;16.27;13.75;;;;;;;7.78;100.00;96818.63;4992489;28;20465;-62
2021/05/03 04:36:18;;;;;;;18.17;13.25;;;;;;;7.66;100.00;96820.41;4986085;28;20442;-66
2021/05/03 04:38:47;;;;;;;16.33;13.13;;;;;;;8.12;100.00;96822.09;4987284;28;20480;-64
2021/05/03 04:41:17;;;;;;;15.45;11.80;;;;;;;7.94;100.00;96815.63;4985468;28;20088;-65
2021/05/03 04:43:45;;;;;;;16.50;12.07;;;;;;;7.52;100.00;96821.44;4984742;28;20578;-66
2021/05/03 04:46:16;;;;;;;14.43;12.40;;;;;;;7.74;100.00;96822.44;4987195;28;20073;-66
2021/05/03 04:48:45;;;;;;;15.32;13.52;;;;;;;7.42;100.00;96824.88;4992899;28;20444;-67
2021/05/03 04:51:13;;;;;;;16.23;12.48;;;;;;;7.33;100.00;96829.91;4970117;28;20034;-66
2021/05/03 04:53:40;;;;;;;13.48;11.40;;;;;;;7.33;100.00;96840.38;4986817;28;20077;-67
2021/05/03 04:56:08;;;;;;;15.02;13.02;;;;;;;8.00;100.00;96830.91;4990039;28;20066;-70
2021/05/03 04:58:37;;;;;;;13.95;11.50;;;;;;;8.50;100.00;96823.50;4967446;28;20085;-66
2021/05/03 05:01:07;;;;;;;14.02;12.10;;;;;;;8.63;100.00;96837.31;4988379;28;20060;-67
2021/05/03 05:03:36;;;;;;;14.57;11.63;;;;;;;7.93;100.00;96825.31;4988121;28;20480;-66
2021/05/03 05:06:05;;;;;;;13.45;11.25;;;;;;;8.14;100.00;96829.84;4987471;28;20074;-64
2021/05/03 05:08:34;;;;;;;12.20;10.63;;;;;;;8.18;100.00;96834.72;4986667;28;20066;-65
2021/05/03 05:11:03;;;;;;;12.57;10.52;;;;;;;8.44;100.00;96837.13;4970812;28;20046;-62
2021/05/03 05:13:30;;;;;;;13.23;11.50;;;;;;;9.24;100.00;96832.31;4985932;28;20070;-64
2021/05/03 05:15:58;;;;;;;12.40;10.25;;;;;;;8.86;100.00;96835.47;4990855;28;20082;-67
2021/05/03 05:18:26;;;;;;;12.10;9.85;;;;;;;7.54;100.00;96847.59;4984131;28;20718;-66
2021/05/03 05:20:54;;;;;;;11.60;9.93;;;;;;;7.74;100.00;96848.69;4983048;28;20070;-67
2021/05/03 05:23:22;;;;;;;12.43;9.93;;;;;;;7.92;100.00;96849.06;4984264;28;20069;-66
2021/05/03 05:25:50;;;;;;;15.45;10.73;;;;;;;7.07;100.00;96859.84;4984086;28;20547;-66
2021/05/03 05:28:17;;;;;;;13.95;10.07;;;;;;;7.09;100.00;96864.03;4979274;28;20093;-64
2021/05/03 05:30:45;;;;;;;15.43;10.73;;;;;;;8.30;100.00;96854.78;4983670;28;20081;-65
2021/05/03 05:33:12;;;;;;;13.02;10.52;;;;;;;7.97;100.00;96852.16;4983886;28;20074;-66
2021/05/03 05:35:40;;;;;;;14.05;10.23;;;;;;;8.12;100.00;96858.88;4983326;28;20204;-64
2021/05/03 05:38:08;;;;;;;12.05;10.63;;;;;;;8.18;100.00;96860.16;4986837;28;20069;-65
2021/05/03 05:40:36;;;;;;;10.40;9.02;;;;;;;7.56;100.00;96864.03;4981919;28;20069;-64
2021/05/03 05:43:05;;;;;;;12.93;10.52;;;;;;;7.60;100.00;96861.09;4988938;28;20085;-64
2021/05/03 05:45:33;;;;;;;12.45;10.20;;;;;;;7.45;100.00;96869.28;4983842;28;20571;-61
2021/05/03 05:48:00;;;;;;;11.65;9.57;;;;;;;7.59;100.00;96866.44;4985685;28;20097;-65
2021/05/03 05:50:28;;;;;;;13.35;11.25;;;;;;;7.59;100.00;96866.44;4982675;28;20074;-64
2021/05/03 05:52:56;;;;;;;11.45;9.77;;;;;;;7.47;100.00;96878.72;4986983;28;20082;-66
2021/05/03 05:55:25;;;;;;;13.32;11.32;;;;;;;7.83;100.00;96875.06;4984601;28;20074;-68
2021/05/03 05:57:53;;;;;;;12.85;9.43;;;;;;;7.49;100.00;96879.41;4983546;28;20516;-64
2021/05/03 06:00:20;;;;;;;13.77;10.10;;;;;;;7.63;100.00;96878.38;4983648;28;20077;-67
2021/05/03 06:02:48;;;;;;;13.48;10.60;;;;;;;7.60;100.00;96879.47;4987504;28;20525;-64
2021/05/03 06:05:18;;;;;;;14.23;10.25;;;;;;;7.84;100.00;96881.16;4968492;28;20069;-65
2021/05/03 06:07:46;;;;;;;14.60;11.07;;;;;;;8.08;100.00;96876.63;4986715;28;20074;-66
2021/05/03 06:10:14;;;;;;;14.88;9.77;;;;;;;7.71;100.00;96875.16;4985734;28;20555;-66
2021/05/03 06:12:43;;;;;;;12.63;10.90;;;;;;;7.72;100.00;96882.09;4990665;28;20078;-66
2021/05/03 06:15:10;;;;;;;12.27;9.65;;;;;;;8.01;100.00;96883.31;4984720;28;20081;-66
2021/05/03 06:17:39;;;;;;;13.18;10.95;;;;;;;8.15;100.00;96889.28;4988462;28;20057;-64
2021/05/03 06:20:08;;;;;;;13.75;11.32;;;;;;;8.33;100.00;96886.09;4984803;28;20110;-66
2021/05/03 06:22:36;;;;;;;13.35;10.48;;;;;;;8.23;100.00;96887.75;4986905;28;20073;-64
2021/05/03 06:25:06;;;;;;;12.68;10.55;;;;;;;8.36;100.00;96887.63;4987947;28;20098;-65
2021/05/03 06:27:34;;;;;;;12.82;10.57;;;;;;;8.24;100.00;96889.44;4987374;28;20069;-65
2021/05/03 06:30:03;;;;;;;13.07;10.68;;;;;;;8.45;100.00;96892.19;4986339;28;20058;-66
2021/05/03 06:32:31;;;;;;;12.55;8.73;;;;;;;8.33;100.00;96898.41;4985020;28;20174;-67
2021/05/03 06:34:59;;;;;;;12.05;9.15;;;;;;;8.25;100.00;96896.34;4987732;28;20073;-66
2021/05/03 06:37:27;;;;;;;12.95;10.05;;;;;;;7.94;100.00;96899.66;4984587;28;20475;-64
2021/05/03 06:39:54;;;;;;;10.73;8.55;;;;;;;8.20;100.00;96890.63;4989188;28;20089;-66
2021/05/03 06:42:22;;;;;;;12.05;9.38;;;;;;;8.04;100.00;96884.88;4983624;28;20108;-66
2021/05/03 06:44:49;;;;;;;16.83;10.55;;;;;;;8.40;100.00;96893.53;4986352;28;20047;-65
2021/05/03 06:47:18;;;;;;;13.75;11.15;;;;;;;8.61;100.00;96897.09;4985716;28;20069;-66
2021/05/03 06:49:47;;;;;;;14.50;10.45;;;;;;;8.84;100.00;96894.41;4987124;28;20104;-67
2021/05/03 06:52:14;;;;;;;13.48;10.20;;;;;;;8.90;100.00;96907.06;4982502;28;20747;-65
2021/05/03 06:54:44;;;;;;;16.20;12.25;;;;;;;8.73;100.00;96895.25;4989816;28;20078;-66
2021/05/03 06:57:12;;;;;;;14.38;11.70;;;;;;;9.02;100.00;96883.25;4983206;28;20484;-65
2021/05/03 06:59:39;;;;;;;12.82;10.20;;;;;;;8.76;100.00;96897.66;4985830;28;20065;-65
2021/05/03 07:02:09;;;;;;;15.88;10.65;;;;;;;9.08;100.00;96896.84;4984997;28;20073;-66
2021/05/03 07:04:38;;;;;;;14.80;12.07;;;;;;;9.49;100.00;96893.44;4986391;28;20648;-67
2021/05/03 07:07:06;;;;;;;15.30;11.77;;;;;;;9.23;100.00;96892.97;4984465;28;20478;-65
2021/05/03 07:09:34;;;;;;;16.38;13.00;;;;;;;9.74;100.00;96895.72;4988665;28;20462;-66
2021/05/03 07:12:07;;;;;;;12.68;11.18;;;;;;;10.06;100.00;96892.16;4983990;28;20073;-64
2021/05/03 07:14:36;;;;;;;13.20;11.05;;;;;;;9.88;100.00;96899.84;4986653;28;20058;-67
2021/05/03 07:17:05;;;;;;;12.95;11.23;;;;;;;9.66;100.00;96895.50;4984506;28;20548;-66
2021/05/03 07:19:33;;;;;;;13.15;11.18;;;;;;;9.96;100.00;96901.81;4986156;28;20074;-66
2021/05/03 07:22:03;;;;;;;12.65;10.30;;;;;;;9.93;100.00;96902.06;4987143;28;20489;-64
2021/05/03 07:24:30;;;;;;;13.50;10.70;;;;;;;10.09;100.00;96902.44;4982093;28;20061;-63
2021/05/03 07:26:58;;;;;;;16.10;11.02;;;;;;;10.52;100.00;96906.69;4985879;28;20719;-63
2021/05/03 07:29:26;;;;;;;14.05;9.50;;;;;;;10.43;100.00;96899.59;4984906;28;20069;-62
2021/05/03 07:31:53;;;;;;;13.80;10.50;;;;;;;10.43;100.00;96905.69;4986492;28;20070;-64
2021/05/03 07:34:21;;;;;;;15.55;10.75;;;;;;;10.53;100.00;96910.16;4983636;28;20089;-65
2021/05/03 07:36:48;;;;;;;13.68;10.65;;;;;;;10.96;100.00;96898.47;4977804;28;20081;-64
2021/05/03 07:39:17;;;;;;;16.75;10.65;;;;;;;10.90;100.00;96899.84;4985531;28;20472;-64
2021/05/03 07:41:44;;;;;;;14.88;10.07;;;;;;;10.38;100.00;96904.41;4985642;28;20070;-64
2021/05/03 07:44:12;;;;;;;16.50;10.38;;;;;;;10.44;100.00;96890.69;4966400;28;20425;-66
2021/05/03 07:46:40;;;;;;;14.98;10.30;;;;;;;10.50;100.00;96890.19;4987051;28;20481;-64
2021/05/03 07:49:08;;;;;;;12.55;9.63;;;;;;;10.38;100.00;96896.50;4983022;28;20092;-64
2021/05/03 07:51:36;;;;;;;13.15;9.52;;;;;;;11.11;100.00;96894.47;4988261;28;20078;-65
2021/05/03 07:54:04;;;;;;;15.82;9.63;;;;;;;10.95;100.00;96888.91;4983939;28;20093;-65
2021/05/03 07:56:33;;;;;;;13.60;10.27;;;;;;;11.17;100.00;96896.56;4986073;28;20074;-65
2021/05/03 07:59:04;;;;;;;13.13;10.02;;;;;;;11.20;100.00;96893.66;4987255;28;20086;-64
2021/05/03 08:01:32;;;;;;;14.77;10.57;;;;;;;11.78;100.00;96903.38;4990257;28;20070;-64
2021/05/03 08:03:59;;;;;;;14.32;10.30;;;;;;;11.37;100.00;96900.06;4990130;28;20082;-64
2021/05/03 08:06:27;;;;;;;15.65;10.35;;;;;;;11.36;100.00;96896.59;4989746;28;20062;-65
2021/05/03 08:08:54;;;;;;;14.30;10.55;;;;;;;11.60;100.00;96900.63;4990512;28;20070;-66
2021/05/03 08:11:23;;;;;;;13.35;9.13;;;;;;;11.12;100.00;96898.78;4986605;28;20077;-66
2021/05/03 08:13:52;;;;;;;13.57;9.75;;;;;;;11.89;100.00;96895.31;4989978;28;20074;-63
2021/05/03 08:16:22;;;;;;;10.82;7.53;;;;;;;11.21;100.00;96894.47;4987334;28;20135;-65
2021/05/03 08:18:50;;;;;;;11.82;8.93;;;;;;;11.27;100.00;96902.69;4991678;28;20077;-64
2021/05/03 08:21:17;;;;;;;12.57;8.65;;;;;;;11.12;100.00;96904.06;4987378;28;20062;-66
2021/05/03 08:23:45;;;;;;;11.95;9.23;;;;;;;10.92;100.00;96913.75;4989883;28;20687;-65
2021/05/03 08:26:13;;;;;;;11.10;9.20;;;;;;;11.11;100.00;96915.56;4971454;28;20065;-64
2021/05/03 08:28:46;;;;;;;11.80;9.30;;;;;;;10.89;100.00;96906.94;4990066;28;20070;-65
2021/05/03 08:31:14;;;;;;;10.30;8.80;;;;;;;11.22;100.00;96911.97;4986708;28;20085;-64
2021/05/03 08:33:46;;;;;;;11.60;7.93;;;;;;;10.94;100.00;96914.44;4991033;28;20644;-65
2021/05/03 08:36:13;;;;;;;12.25;9.77;;;;;;;10.88;100.00;96915.81;4986928;28;20069;-64
2021/05/03 08:38:41;;;;;;;11.15;9.40;;;;;;;11.16;100.00;96913.38;4988973;28;20062;-64
2021/05/03 08:41:09;;;;;;;10.10;8.18;;;;;;;10.92;100.00;96908.47;4986095;28;20065;-65
2021/05/03 08:43:40;;;;;;;11.25;8.90;;;;;;;11.10;100.00;96908.66;4996905;28;20441;-65
2021/05/03 08:46:13;;;;;;;8.52;7.60;;;;;;;11.65;93.75;96896.56;4990883;28;20077;-64
2021/05/03 08:48:53;;;;;;;9.32;7.70;;;;;;;11.40;100.00;96895.31;4991226;28;20065;-66
2021/05/03 08:51:31;;;;;;;11.95;9.57;;;;;;;11.14;100.00;96905.59;4987745;28;20074;-66
2021/05/03 08:54:03;;;;;;;11.38;9.65;;;;;;;11.27;100.00;96900.03;4988854;28;20061;-65
2021/05/03 08:56:30;;;;;;;11.25;7.95;;;;;;;10.76;100.00;96908.97;4986094;28;20066;-64
2021/05/03 08:58:58;;;;;;;10.00;8.20;;;;;;;10.86;100.00;96907.19;4987642;28;20497;-63
2021/05/03 09:01:26;;;;;;;9.23;7.95;;;;;;;10.62;100.00;96912.81;4986815;28;20453;-66
2021/05/03 09:03:55;;;;;;;10.73;7.40;;;;;;;10.60;100.00;96906.03;4990934;28;20077;-64
2021/05/03 09:06:23;;;;;;;10.10;7.57;;;;;;;10.64;100.00;96903.00;4986773;28;20477;-64
2021/05/03 09:09:01;;;;;;;10.32;8.43;;;;;;;11.10;100.00;96898.09;4987624;28;20062;-66
2021/05/03 09:11:28;;;;;;;13.68;8.00;;;;;;;11.15;100.00;96907.28;4985293;28;20070;-61
2021/05/03 09:14:16;;;;;;;11.27;8.77;;;;;;;11.95;100.00;96900.03;4988932;28;20062;-65
2021/05/03 09:16:44;;;;;;;10.90;8.40;;;;;;;12.23;95.39;96877.13;4987034;28;20089;-65
2021/05/03 09:19:14;;;;;;;11.48;6.93;;;;;;;12.64;76.10;96890.91;4985000;28;20082;-65
2021/05/03 09:21:42;;;;;;;9.05;7.85;;;;;;;13.05;78.69;96888.72;4973750;28;20065;-66
2021/05/03 09:24:13;;;;;;;6.97;5.63;;;;;;;12.40;81.69;96894.06;4985199;28;20053;-66
2021/05/03 09:26:44;;;;;;;10.48;5.80;;;;;;;11.64;100.00;96907.28;4988096;28;20066;-66
2021/05/03 09:29:29;;;;;;;7.55;6.15;;;;;;;9.94;100.00;96919.53;4984988;28;20074;-65
2021/05/03 09:32:01;;;;;;;7.05;5.55;;;;;;;9.50;100.00;96910.94;4987363;28;20076;-64
2021/05/03 09:34:32;;;;;;;9.32;6.35;;;;;;;9.60;100.00;96908.34;4985446;28;20062;-64
2021/05/03 09:37:15;;;;;;;8.57;6.30;;;;;;;10.15;100.00;96908.97;4990768;28;20128;-67
2021/05/03 09:39:44;;;;;;;8.48;6.68;;;;;;;10.38;100.00;96921.06;4984355;28;21545;-68
2021/05/03 09:42:12;;;;;;;7.82;6.53;;;;;;;10.14;100.00;96908.16;4983697;28;20062;-67
2021/05/03 09:45:07;;;;;;;7.95;6.22;;;;;;;10.04;100.00;96909.06;4985441;28;20062;-66
2021/05/03 09:47:35;;;;;;;6.88;5.88;;;;;;;10.04;100.00;96909.88;4979618;28;20220;-65
2021/05/03 09:50:07;;;;;;;7.75;6.40;;;;;;;9.74;100.00;96913.34;4984775;28;20074;-65
2021/05/03 09:52:35;;;;;;;8.63;5.90;;;;;;;9.21;100.00;96910.69;4988835;28;20067;-66
2021/05/03 09:55:05;;;;;;;5.95;4.40;;;;;;;8.82;100.00;96918.22;4988739;28;20086;-65
2021/05/03 09:57:32;;;;;;;7.95;5.85;;;;;;;8.90;100.00;96913.16;4987354;28;20250;-65
2021/05/03 10:00:03;;;;;;;8.77;6.65;;;;;;;8.81;100.00;96911.28;4985098;28;20068;-65
2021/05/03 10:02:33;;;;;;;8.63;6.20;;;;;;;8.89;100.00;96915.91;4988743;28;20061;-66
2021/05/03 10:05:04;;;;;;;9.20;6.97;;;;;;;9.14;100.00;96901.63;4984245;28;20073;-66
2021/05/03 10:07:35;;;;;;;7.45;6.60;;;;;;;9.31;100.00;96895.81;4987587;28;20066;-64
2021/05/03 10:10:07;;;;;;;7.35;6.25;;;;;;;9.65;100.00;96885.13;4988244;28;20082;-66
2021/05/03 10:12:35;;;;;;;7.55;6.50;;;;;;;9.74;100.00;96887.81;4986645;28;21357;-64
2021/05/03 10:15:06;;;;;;;6.97;5.53;;;;;;;9.86;100.00;96875.41;4985985;28;20229;-65
2021/05/03 10:17:34;;;;;;;8.25;6.20;;;;;;;10.64;100.00;96873.97;4987958;28;20500;-64
2021/05/03 10:20:03;;;;;;;7.90;5.72;;;;;;;10.88;100.00;96878.06;4984069;28;20081;-65
2021/05/03 10:22:31;;;;;;;5.93;4.75;;;;;;;11.15;100.00;96867.69;4987460;28;20074;-65
2021/05/03 10:25:03;;;;;;;5.82;4.72;;;;;;;11.64;89.22;96863.19;4987712;28;20085;-63
2021/05/03 10:27:32;;;;;;;6.07;4.93;;;;;;;11.64;94.99;96865.84;4986322;28;20477;-66
2021/05/03 10:30:08;;;;;;;6.28;5.00;;;;;;;11.72;100.00;96853.72;4984595;28;20030;-65
2021/05/03 10:32:37;;;;;;;6.95;5.00;;;;;;;12.20;85.97;96850.97;4987062;28;20062;-65
2021/05/03 10:35:07;;;;;;;7.75;5.32;;;;;;;11.65;98.90;96854.28;4984248;28;20109;-65
2021/05/03 10:37:43;;;;;;;6.88;5.65;;;;;;;12.28;91.52;96852.91;4987018;28;20524;-65
2021/05/03 10:40:51;;;;;;;6.30;5.00;;;;;;;12.26;100.00;96841.66;4983888;28;20082;-66
2021/05/03 10:43:27;;;;;;;3.90;3.50;;;;;;;11.82;80.60;96836.88;4986978;28;20093;-65
2021/05/03 10:46:50;;;;;;;3.70;3.00;;;;;;;11.27;86.88;96838.50;4986230;28;20082;-67
2021/05/03 10:49:05;;;;;;;4.40;2.88;;;;;;;11.34;77.86;96842.25;4981478;28;20333;-65
2021/05/03 10:51:51;;;;;;;3.63;3.10;;;;;;;11.09;69.93;96841.81;4986540;28;20475;-65
2021/05/03 10:54:33;;;;;;;4.15;3.45;;;;;;;11.52;85.15;96837.06;4987176;28;20457;-66
2021/05/03 10:59:51;;;;;;;6.20;4.32;;;;;;;11.10;77.40;96840.84;4984849;28;20038;-46
2021/05/03 11:02:20;;;;;;;4.60;4.20;;;;;;;11.10;77.88;96840.03;4979593;28;20066;-53
2021/05/03 11:05:14;;;;;;;5.00;4.10;;;;;;;11.02;65.26;96837.25;4985914;28;20065;-55
2021/05/03 11:08:30;;;;;;;5.20;4.60;;;;;;;11.91;79.86;96835.22;4977046;28;20066;-49
2021/05/03 11:11:09;;;;;;;6.78;5.05;;;;;;;11.65;74.92;96824.41;4984156;28;20085;-46
2021/05/03 11:13:58;;;;;;;6.03;4.32;;;;;;;12.13;76.42;96820.81;4986760;28;20139;-51
2021/05/03 11:16:47;;;;;;;5.15;4.28;;;;;;;12.58;66.50;96820.03;4985283;28;20089;-49
2021/05/03 11:19:34;;;;;;;4.95;4.45;;;;;;;12.38;82.66;96815.84;4989702;28;20070;-46
2021/05/03 11:22:03;;;;;;;6.28;5.15;;;;;;;12.57;74.91;96813.91;4988582;28;20435;-52
2021/05/03 11:24:44;;;;;;;6.20;5.00;;;;;;;12.48;79.87;96803.38;4986758;28;20128;-49
2021/05/03 11:27:16;;;;;;;5.72;4.97;;;;;;;12.58;62.51;96805.00;4989057;28;20072;-46
2021/05/03 11:29:47;;;;;;;6.30;4.63;;;;;;;12.70;69.81;96812.75;4987689;28;20077;-48
2021/05/03 11:32:15;;;;;;;4.43;4.03;;;;;;;12.32;61.25;96804.06;4986276;28;20080;-49
2021/05/03 11:34:48;;;;;;;5.82;4.88;;;;;;;12.76;71.70;96805.00;4991720;28;20054;-44
2021/05/03 11:37:18;;;;;;;6.15;4.70;;;;;;;13.54;81.19;96794.66;4988948;28;20505;-46
2021/05/03 11:39:56;;;;;;;4.47;3.97;;;;;;;13.32;65.33;96789.84;4992829;28;20473;-49
2021/05/03 11:42:42;;;;;;;5.93;3.67;;;;;;;12.93;73.86;96782.19;4989950;28;20475;-45